PWSweather.com
Personal Weather Stations
Station Observations
TERNAARD
Friesland, TernaardNL

FrieslandTernaardNL

Lat: 53.380557, Lon: 5.969774

Elevation: 3

Station Type: Davis Vantage Pro-2

Latest ConditionsUpdated 7:33:45 PM GMT+01:01 Sunday, Jan 26, 2020
Currently Today's Max Today's Min Today's Average
Temperature 43.4°F6.3°C 43.4°F6.3°C 34.3°F1.3°C 38.3°F3.5°C
Dew Point 41.8°F5.4°C 41.8°F5.4°C 32.8°F0.4°C 36.8°F2.7°C
Winds 4.6 mph SW7.4 kmh SW 6.9 mph -11.1 kmh - - 4.0 mph 6.4 kmh
Wind Gusts 9.2 mph14.8 kmh 10.3 mph16.6 kmh - -
Humidity 94% 96% 92% 94%
Pressure 29.83 in1010.2 mb 30.06 in1017.9 mb 29.83 in1010.2 mb -
Hour Temp Dew Point Humidity Winds Wind Gusts Pressure Precip Precip Rate Daily Precip Total
07:33 PM 43.4°F6.3°C 41.8°F5.4°C 94% 4.6 mph SW7.4 kmh SW 9.2 mph14.8 kmh 29.83 in1010.2 mb - 0.00 in0.0 mm 0.00 in0.0 mm
07:28 PM 43.3°F6.3°C 41.7°F5.4°C 94% 4.6 mph SW7.4 kmh SW 6.9 mph11.1 kmh 29.83 in1010.2 mb - 0.00 in0.0 mm 0.00 in0.0 mm
07:22 PM 43.2°F6.2°C 41.6°F5.3°C 94% 3.4 mph WSW5.5 kmh WSW 5.8 mph9.3 kmh 29.83 in1010.2 mb - 0.00 in0.0 mm 0.00 in0.0 mm
07:16 PM 42.9°F6.1°C 41.6°F5.3°C 95% 5.8 mph SW9.3 kmh SW 8.0 mph12.9 kmh 29.84 in1010.5 mb - 0.00 in0.0 mm 0.00 in0.0 mm
07:11 PM 42.8°F6.0°C 41.2°F5.1°C 94% 5.8 mph WSW9.3 kmh WSW 8.0 mph12.9 kmh 29.83 in1010.2 mb - 0.00 in0.0 mm 0.00 in0.0 mm
07:05 PM 42.4°F5.8°C 40.8°F4.9°C 94% 4.6 mph SW7.4 kmh SW 6.9 mph11.1 kmh 29.84 in1010.5 mb - 0.00 in0.0 mm 0.00 in0.0 mm
07:00 PM 42.3°F5.7°C 40.7°F4.8°C 94% 3.4 mph SW5.5 kmh SW 5.8 mph9.3 kmh 29.84 in1010.5 mb - 0.00 in0.0 mm 0.00 in0.0 mm
06:54 PM 42.1°F5.6°C 40.5°F4.7°C 94% 2.3 mph SW3.7 kmh SW 3.4 mph5.5 kmh 29.84 in1010.5 mb - 0.00 in0.0 mm 0.00 in0.0 mm
06:48 PM 41.9°F5.5°C 40.3°F4.6°C 94% 3.4 mph WSW5.5 kmh WSW 4.6 mph7.4 kmh 29.84 in1010.5 mb - 0.00 in0.0 mm 0.00 in0.0 mm
06:43 PM 41.8°F5.4°C 40.5°F4.7°C 95% 2.3 mph WSW3.7 kmh WSW 4.6 mph7.4 kmh 29.84 in1010.5 mb - 0.00 in0.0 mm 0.00 in0.0 mm
06:37 PM 41.7°F5.4°C 40.1°F4.5°C 94% 3.4 mph WSW5.5 kmh WSW 3.4 mph5.5 kmh 29.84 in1010.5 mb - 0.00 in0.0 mm 0.00 in0.0 mm
06:31 PM 41.4°F5.2°C 39.8°F4.3°C 94% 1.1 mph SW1.8 kmh SW 3.4 mph5.5 kmh 29.84 in1010.5 mb - 0.00 in0.0 mm 0.00 in0.0 mm
06:26 PM 41.4°F5.2°C 39.8°F4.3°C 94% 3.4 mph SW5.5 kmh SW 5.8 mph9.3 kmh 29.84 in1010.5 mb - 0.00 in0.0 mm 0.00 in0.0 mm
06:20 PM 41.6°F5.3°C 40.0°F4.4°C 94% 3.4 mph SW5.5 kmh SW 3.4 mph5.5 kmh 29.85 in1010.8 mb - 0.00 in0.0 mm 0.00 in0.0 mm
06:15 PM 41.7°F5.4°C 40.1°F4.5°C 94% 3.4 mph SW5.5 kmh SW 4.6 mph7.4 kmh 29.85 in1010.8 mb - 0.00 in0.0 mm 0.00 in0.0 mm
06:09 PM 41.8°F5.4°C 40.2°F4.6°C 94% 3.4 mph WSW5.5 kmh WSW 4.6 mph7.4 kmh 29.85 in1010.8 mb - 0.00 in0.0 mm 0.00 in0.0 mm
06:03 PM 41.8°F5.4°C 40.2°F4.6°C 94% 1.1 mph SW1.8 kmh SW 3.4 mph5.5 kmh 29.85 in1010.8 mb - 0.00 in0.0 mm 0.00 in0.0 mm
05:58 PM 41.5°F5.3°C 39.9°F4.4°C 94% 3.4 mph WSW5.5 kmh WSW 3.4 mph5.5 kmh 29.85 in1010.8 mb - 0.00 in0.0 mm 0.00 in0.0 mm
05:52 PM 41.4°F5.2°C 39.8°F4.3°C 94% 2.3 mph WSW3.7 kmh WSW 4.6 mph7.4 kmh 29.85 in1010.8 mb - 0.00 in0.0 mm 0.00 in0.0 mm
05:46 PM 41.3°F5.2°C 39.4°F4.1°C 93% 2.3 mph WSW3.7 kmh WSW 3.4 mph5.5 kmh 29.86 in1011.2 mb - 0.00 in0.0 mm 0.00 in0.0 mm
05:41 PM 41.3°F5.2°C 39.4°F4.1°C 93% 2.3 mph SW3.7 kmh SW 3.4 mph5.5 kmh 29.86 in1011.2 mb - 0.00 in0.0 mm 0.00 in0.0 mm
05:35 PM 41.5°F5.3°C 39.6°F4.2°C 93% 3.4 mph WSW5.5 kmh WSW 4.6 mph7.4 kmh 29.86 in1011.2 mb - 0.00 in0.0 mm 0.00 in0.0 mm
05:30 PM 41.5°F5.3°C 39.7°F4.3°C 93% 3.4 mph SW5.5 kmh SW 3.4 mph5.5 kmh 29.86 in1011.2 mb - 0.00 in0.0 mm 0.00 in0.0 mm
05:24 PM 42.3°F5.7°C 40.4°F4.7°C 93% Calm Calm 3.4 mph5.5 kmh 29.85 in1010.8 mb - 0.00 in0.0 mm 0.00 in0.0 mm
05:18 PM 42.5°F5.8°C 40.6°F4.8°C 93% 1.1 mph SW1.8 kmh SW 2.3 mph3.7 kmh 29.86 in1011.2 mb - 0.00 in0.0 mm 0.00 in0.0 mm
05:13 PM 42.5°F5.8°C 40.6°F4.8°C 93% 4.6 mph WSW7.4 kmh WSW 4.6 mph7.4 kmh 29.86 in1011.2 mb - 0.00 in0.0 mm 0.00 in0.0 mm
05:07 PM 42.5°F5.8°C 40.6°F4.8°C 93% 4.6 mph WSW7.4 kmh WSW 5.8 mph9.3 kmh 29.86 in1011.2 mb - 0.00 in0.0 mm 0.00 in0.0 mm
05:01 PM 42.6°F5.9°C 40.7°F4.8°C 93% 4.6 mph WSW7.4 kmh WSW 5.8 mph9.3 kmh 29.86 in1011.2 mb - 0.00 in0.0 mm 0.00 in0.0 mm
04:56 PM 42.5°F5.8°C 40.7°F4.8°C 93% 5.8 mph WSW9.3 kmh WSW 6.9 mph11.1 kmh 29.86 in1011.2 mb - 0.00 in0.0 mm 0.00 in0.0 mm
04:50 PM 42.4°F5.8°C 40.5°F4.7°C 93% 2.3 mph WSW3.7 kmh WSW 4.6 mph7.4 kmh 29.86 in1011.2 mb - 0.00 in0.0 mm 0.00 in0.0 mm
04:45 PM 42.3°F5.7°C 40.4°F4.7°C 93% 3.4 mph WSW5.5 kmh WSW 5.8 mph9.3 kmh 29.87 in1011.5 mb - 0.00 in0.0 mm 0.00 in0.0 mm
04:39 PM 42.3°F5.7°C 40.4°F4.7°C 93% 4.6 mph WSW7.4 kmh WSW 4.6 mph7.4 kmh 29.87 in1011.5 mb - 0.00 in0.0 mm 0.00 in0.0 mm
04:33 PM 42.2°F5.7°C 40.3°F4.6°C 93% 5.8 mph WSW9.3 kmh WSW 6.9 mph11.1 kmh 29.87 in1011.5 mb - 0.00 in0.0 mm 0.00 in0.0 mm
04:28 PM 42.3°F5.7°C 40.4°F4.7°C 93% 3.4 mph WSW5.5 kmh WSW 5.8 mph9.3 kmh 29.87 in1011.5 mb - 0.00 in0.0 mm 0.00 in0.0 mm
04:22 PM 42.3°F5.7°C 40.4°F4.7°C 93% 4.6 mph WSW7.4 kmh WSW 4.6 mph7.4 kmh 29.87 in1011.5 mb - 0.00 in0.0 mm 0.00 in0.0 mm
04:16 PM 42.3°F5.7°C 40.4°F4.7°C 93% 4.6 mph WSW7.4 kmh WSW 6.9 mph11.1 kmh 29.87 in1011.5 mb - 0.00 in0.0 mm 0.00 in0.0 mm
04:11 PM 42.3°F5.7°C 40.4°F4.7°C 93% 3.4 mph WSW5.5 kmh WSW 4.6 mph7.4 kmh 29.87 in1011.5 mb - 0.00 in0.0 mm 0.00 in0.0 mm
04:05 PM 42.2°F5.7°C 40.4°F4.7°C 93% 3.4 mph WSW5.5 kmh WSW 3.4 mph5.5 kmh 29.86 in1011.2 mb - 0.00 in0.0 mm 0.00 in0.0 mm
04:00 PM 42.3°F5.7°C 40.4°F4.7°C 93% 6.9 mph WSW11.1 kmh WSW 9.2 mph14.8 kmh 29.86 in1011.2 mb - 0.00 in0.0 mm 0.00 in0.0 mm
03:54 PM 42.4°F5.8°C 40.5°F4.7°C 93% 5.8 mph WSW9.3 kmh WSW 8.0 mph12.9 kmh 29.87 in1011.5 mb - 0.00 in0.0 mm 0.00 in0.0 mm
03:48 PM 42.4°F5.8°C 40.5°F4.7°C 93% 3.4 mph WSW5.5 kmh WSW 6.9 mph11.1 kmh 29.87 in1011.5 mb - 0.00 in0.0 mm 0.00 in0.0 mm
03:43 PM 42.5°F5.8°C 40.6°F4.8°C 93% 4.6 mph WSW7.4 kmh WSW 5.8 mph9.3 kmh 29.87 in1011.5 mb - 0.00 in0.0 mm 0.00 in0.0 mm
03:37 PM 42.5°F5.8°C 40.6°F4.8°C 93% 4.6 mph WSW7.4 kmh WSW 6.9 mph11.1 kmh 29.87 in1011.5 mb - 0.00 in0.0 mm 0.00 in0.0 mm
03:31 PM 42.4°F5.8°C 40.5°F4.7°C 93% 3.4 mph WSW5.5 kmh WSW 5.8 mph9.3 kmh 29.88 in1011.9 mb - 0.00 in0.0 mm 0.00 in0.0 mm
03:26 PM 42.3°F5.7°C 40.4°F4.7°C 93% 4.6 mph WSW7.4 kmh WSW 8.0 mph12.9 kmh 29.88 in1011.9 mb - 0.00 in0.0 mm 0.00 in0.0 mm
03:20 PM 42.3°F5.7°C 40.4°F4.7°C 93% 3.4 mph SW5.5 kmh SW 3.4 mph5.5 kmh 29.88 in1011.9 mb - 0.00 in0.0 mm 0.00 in0.0 mm
03:15 PM 42.2°F5.7°C 40.3°F4.6°C 93% 5.8 mph W9.3 kmh W 8.0 mph12.9 kmh 29.88 in1011.9 mb - 0.00 in0.0 mm 0.00 in0.0 mm
03:09 PM 42.3°F5.7°C 40.4°F4.7°C 93% 5.8 mph WSW9.3 kmh WSW 6.9 mph11.1 kmh 29.89 in1012.2 mb - 0.00 in0.0 mm 0.00 in0.0 mm
03:03 PM 42.3°F5.7°C 40.5°F4.7°C 93% 5.8 mph WNW9.3 kmh WNW 10.3 mph16.6 kmh 29.89 in1012.2 mb - 0.00 in0.0 mm 0.00 in0.0 mm
02:58 PM 42.5°F5.8°C 40.3°F4.6°C 92% 5.8 mph W9.3 kmh W 9.2 mph14.8 kmh 29.89 in1012.2 mb - 0.00 in0.0 mm 0.00 in0.0 mm
02:52 PM 42.6°F5.9°C 40.4°F4.7°C 92% 6.9 mph W11.1 kmh W 8.0 mph12.9 kmh 29.89 in1012.2 mb - 0.00 in0.0 mm 0.00 in0.0 mm
02:46 PM 42.5°F5.8°C 40.6°F4.8°C 93% 4.6 mph WSW7.4 kmh WSW 8.0 mph12.9 kmh 29.89 in1012.2 mb - 0.00 in0.0 mm 0.00 in0.0 mm
02:41 PM 42.5°F5.8°C 40.3°F4.6°C 92% 2.3 mph W3.7 kmh W 3.4 mph5.5 kmh 29.89 in1012.2 mb - 0.00 in0.0 mm 0.00 in0.0 mm
02:35 PM 42.4°F5.8°C 40.2°F4.6°C 92% 4.6 mph WNW7.4 kmh WNW 4.6 mph7.4 kmh 29.90 in1012.5 mb - 0.00 in0.0 mm 0.00 in0.0 mm
02:30 PM 42.4°F5.8°C 40.3°F4.6°C 92% 4.6 mph WSW7.4 kmh WSW 6.9 mph11.1 kmh 29.90 in1012.5 mb - 0.00 in0.0 mm 0.00 in0.0 mm
02:24 PM 42.3°F5.7°C 40.4°F4.7°C 93% Calm Calm -- 29.90 in1012.5 mb - 0.00 in0.0 mm 0.00 in0.0 mm
02:18 PM 42.3°F5.7°C 40.4°F4.7°C 93% 1.1 mph WSW1.8 kmh WSW 2.3 mph3.7 kmh 29.89 in1012.2 mb - 0.00 in0.0 mm 0.00 in0.0 mm
02:13 PM 42.2°F5.7°C 40.3°F4.6°C 93% 4.6 mph W7.4 kmh W 4.6 mph7.4 kmh 29.90 in1012.5 mb - 0.00 in0.0 mm 0.00 in0.0 mm
02:07 PM 42.1°F5.6°C 40.2°F4.6°C 93% 3.4 mph WSW5.5 kmh WSW 4.6 mph7.4 kmh 29.90 in1012.5 mb - 0.00 in0.0 mm 0.00 in0.0 mm
02:01 PM 42.0°F5.6°C 40.1°F4.5°C 93% 3.4 mph WSW5.5 kmh WSW 6.9 mph11.1 kmh 29.90 in1012.5 mb - 0.00 in0.0 mm 0.00 in0.0 mm
01:56 PM 41.9°F5.5°C 40.1°F4.5°C 93% 2.3 mph W3.7 kmh W 3.4 mph5.5 kmh 29.90 in1012.5 mb - 0.00 in0.0 mm 0.00 in0.0 mm
01:50 PM 41.8°F5.4°C 39.9°F4.4°C 93% 2.3 mph W3.7 kmh W 4.6 mph7.4 kmh 29.91 in1012.9 mb - 0.00 in0.0 mm 0.00 in0.0 mm
01:45 PM 41.8°F5.4°C 39.9°F4.4°C 93% 3.4 mph WSW5.5 kmh WSW 3.4 mph5.5 kmh 29.91 in1012.9 mb - 0.00 in0.0 mm 0.00 in0.0 mm
01:39 PM 41.6°F5.3°C 39.7°F4.3°C 93% 3.4 mph WSW5.5 kmh WSW 6.9 mph11.1 kmh 29.91 in1012.9 mb - 0.00 in0.0 mm 0.00 in0.0 mm
01:33 PM 41.5°F5.3°C 39.6°F4.2°C 93% 5.8 mph W9.3 kmh W 8.0 mph12.9 kmh 29.92 in1013.2 mb - 0.00 in0.0 mm 0.00 in0.0 mm
01:28 PM 41.5°F5.3°C 39.6°F4.2°C 93% 4.6 mph W7.4 kmh W 5.8 mph9.3 kmh 29.91 in1012.9 mb - 0.00 in0.0 mm 0.00 in0.0 mm
01:22 PM 41.4°F5.2°C 39.6°F4.2°C 93% 3.4 mph W5.5 kmh W 9.2 mph14.8 kmh 29.91 in1012.9 mb - 0.00 in0.0 mm 0.00 in0.0 mm
01:16 PM 41.2°F5.1°C 39.3°F4.1°C 93% 4.6 mph WSW7.4 kmh WSW 5.8 mph9.3 kmh 29.91 in1012.9 mb - 0.00 in0.0 mm 0.00 in0.0 mm
01:11 PM 41.2°F5.1°C 39.4°F4.1°C 93% 3.4 mph WSW5.5 kmh WSW 4.6 mph7.4 kmh 29.91 in1012.9 mb - 0.00 in0.0 mm 0.00 in0.0 mm
01:05 PM 41.2°F5.1°C 39.6°F4.2°C 94% 3.4 mph W5.5 kmh W 3.4 mph5.5 kmh 29.91 in1012.9 mb - 0.00 in0.0 mm 0.00 in0.0 mm
01:00 PM 41.0°F5.0°C 39.4°F4.1°C 94% 3.4 mph W5.5 kmh W 4.6 mph7.4 kmh 29.91 in1012.9 mb - 0.00 in0.0 mm 0.00 in0.0 mm
12:54 PM 41.0°F5.0°C 39.4°F4.1°C 94% 3.4 mph WSW5.5 kmh WSW 4.6 mph7.4 kmh 29.91 in1012.9 mb - 0.00 in0.0 mm 0.00 in0.0 mm
12:48 PM 40.8°F4.9°C 39.2°F4.0°C 94% 2.3 mph WSW3.7 kmh WSW 3.4 mph5.5 kmh 29.91 in1012.9 mb - 0.00 in0.0 mm 0.00 in0.0 mm
12:43 PM 40.7°F4.8°C 39.1°F3.9°C 94% 3.4 mph WSW5.5 kmh WSW 5.8 mph9.3 kmh 29.92 in1013.2 mb - 0.00 in0.0 mm 0.00 in0.0 mm
12:37 PM 40.5°F4.7°C 38.9°F3.8°C 94% 5.8 mph W9.3 kmh W 5.8 mph9.3 kmh 29.92 in1013.2 mb - 0.00 in0.0 mm 0.00 in0.0 mm
12:31 PM 40.4°F4.7°C 38.8°F3.8°C 94% 6.9 mph WSW11.1 kmh WSW 10.3 mph16.6 kmh 29.92 in1013.2 mb - 0.00 in0.0 mm 0.00 in0.0 mm
12:26 PM 40.5°F4.7°C 39.2°F4.0°C 95% 5.8 mph WSW9.3 kmh WSW 8.0 mph12.9 kmh 29.92 in1013.2 mb - 0.00 in0.0 mm 0.00 in0.0 mm
12:20 PM 40.5°F4.7°C 39.2°F4.0°C 95% 5.8 mph WSW9.3 kmh WSW 9.2 mph14.8 kmh 29.92 in1013.2 mb - 0.00 in0.0 mm 0.00 in0.0 mm
12:15 PM 40.4°F4.7°C 39.1°F3.9°C 95% 6.9 mph WSW11.1 kmh WSW 8.0 mph12.9 kmh 29.93 in1013.5 mb - 0.00 in0.0 mm 0.00 in0.0 mm
12:09 PM 40.1°F4.5°C 38.8°F3.8°C 95% 6.9 mph WSW11.1 kmh WSW 6.9 mph11.1 kmh 29.93 in1013.5 mb - 0.00 in0.0 mm 0.00 in0.0 mm
12:03 PM 40.0°F4.4°C 39.0°F3.9°C 96% 5.8 mph WSW9.3 kmh WSW 8.0 mph12.9 kmh 29.93 in1013.5 mb - 0.00 in0.0 mm 0.00 in0.0 mm
11:58 AM 39.4°F4.1°C 38.4°F3.6°C 96% 4.6 mph WSW7.4 kmh WSW 5.8 mph9.3 kmh 29.93 in1013.5 mb - 0.00 in0.0 mm 0.00 in0.0 mm
11:52 AM 39.2°F4.0°C 38.2°F3.4°C 96% 5.8 mph SW9.3 kmh SW 9.2 mph14.8 kmh 29.94 in1013.9 mb - 0.00 in0.0 mm 0.00 in0.0 mm
11:46 AM 39.0°F3.9°C 38.0°F3.3°C 96% 5.8 mph WSW9.3 kmh WSW 10.3 mph16.6 kmh 29.94 in1013.9 mb - 0.00 in0.0 mm 0.00 in0.0 mm
11:41 AM 38.9°F3.8°C 37.9°F3.3°C 96% 6.9 mph SW11.1 kmh SW 10.3 mph16.6 kmh 29.94 in1013.9 mb - 0.00 in0.0 mm 0.00 in0.0 mm
11:35 AM 38.6°F3.7°C 37.6°F3.1°C 96% 5.8 mph WSW9.3 kmh WSW 8.0 mph12.9 kmh 29.94 in1013.9 mb - 0.00 in0.0 mm 0.00 in0.0 mm
11:30 AM 38.6°F3.7°C 37.5°F3.1°C 96% 5.8 mph SW9.3 kmh SW 9.2 mph14.8 kmh 29.94 in1013.9 mb - 0.00 in0.0 mm 0.00 in0.0 mm
11:24 AM 38.2°F3.4°C 37.2°F2.9°C 96% 5.8 mph WSW9.3 kmh WSW 6.9 mph11.1 kmh 29.95 in1014.2 mb - 0.00 in0.0 mm 0.00 in0.0 mm
11:18 AM 38.2°F3.4°C 37.2°F2.9°C 96% 4.6 mph WSW7.4 kmh WSW 9.2 mph14.8 kmh 29.95 in1014.2 mb - 0.00 in0.0 mm 0.00 in0.0 mm
11:13 AM 37.9°F3.3°C 36.9°F2.7°C 96% 4.6 mph WSW7.4 kmh WSW 10.3 mph16.6 kmh 29.95 in1014.2 mb - 0.00 in0.0 mm 0.00 in0.0 mm
11:07 AM 37.8°F3.2°C 36.8°F2.7°C 96% 5.8 mph WSW9.3 kmh WSW 4.6 mph7.4 kmh 29.95 in1014.2 mb - 0.00 in0.0 mm 0.00 in0.0 mm
11:01 AM 37.6°F3.1°C 36.5°F2.5°C 96% 3.4 mph WSW5.5 kmh WSW 5.8 mph9.3 kmh 29.95 in1014.2 mb - 0.00 in0.0 mm 0.00 in0.0 mm
10:56 AM 37.5°F3.1°C 36.5°F2.5°C 96% 4.6 mph WSW7.4 kmh WSW 6.9 mph11.1 kmh 29.95 in1014.2 mb - 0.00 in0.0 mm 0.00 in0.0 mm
10:50 AM 37.3°F2.9°C 36.3°F2.4°C 96% 5.8 mph WSW9.3 kmh WSW 6.9 mph11.1 kmh 29.95 in1014.2 mb - 0.00 in0.0 mm 0.00 in0.0 mm
10:45 AM 37.3°F2.9°C 36.3°F2.4°C 96% 4.6 mph WSW7.4 kmh WSW 6.9 mph11.1 kmh 29.95 in1014.2 mb - 0.00 in0.0 mm 0.00 in0.0 mm
10:39 AM 37.1°F2.8°C 36.0°F2.2°C 96% 4.6 mph WSW7.4 kmh WSW 6.9 mph11.1 kmh 29.96 in1014.6 mb - 0.00 in0.0 mm 0.00 in0.0 mm
10:33 AM 36.9°F2.7°C 35.9°F2.2°C 96% 4.6 mph WSW7.4 kmh WSW 5.8 mph9.3 kmh 29.96 in1014.6 mb - 0.00 in0.0 mm 0.00 in0.0 mm
10:28 AM 36.8°F2.7°C 35.8°F2.1°C 96% 5.8 mph SW9.3 kmh SW 9.2 mph14.8 kmh 29.96 in1014.6 mb - 0.00 in0.0 mm 0.00 in0.0 mm
10:22 AM 36.7°F2.6°C 35.7°F2.1°C 96% 4.6 mph WSW7.4 kmh WSW 8.0 mph12.9 kmh 29.96 in1014.6 mb - 0.00 in0.0 mm 0.00 in0.0 mm
10:16 AM 36.6°F2.6°C 35.5°F1.9°C 96% 4.6 mph SW7.4 kmh SW 5.8 mph9.3 kmh 29.96 in1014.6 mb - 0.00 in0.0 mm 0.00 in0.0 mm
10:11 AM 36.5°F2.5°C 35.4°F1.9°C 96% 3.4 mph SW5.5 kmh SW 5.8 mph9.3 kmh 29.96 in1014.6 mb - 0.00 in0.0 mm 0.00 in0.0 mm
10:05 AM 36.3°F2.4°C 35.3°F1.8°C 96% 4.6 mph WSW7.4 kmh WSW 10.3 mph16.6 kmh 29.96 in1014.6 mb - 0.00 in0.0 mm 0.00 in0.0 mm
10:00 AM 36.3°F2.4°C 35.3°F1.8°C 96% 4.6 mph WSW7.4 kmh WSW 6.9 mph11.1 kmh 29.96 in1014.6 mb - 0.00 in0.0 mm 0.00 in0.0 mm
09:54 AM 36.0°F2.2°C 35.0°F1.7°C 96% 4.6 mph WSW7.4 kmh WSW 5.8 mph9.3 kmh 29.96 in1014.6 mb - 0.00 in0.0 mm 0.00 in0.0 mm
09:48 AM 36.0°F2.2°C 35.0°F1.7°C 96% 4.6 mph WSW7.4 kmh WSW 5.8 mph9.3 kmh 29.97 in1014.9 mb - 0.00 in0.0 mm 0.00 in0.0 mm
09:43 AM 35.8°F2.1°C 34.8°F1.6°C 96% 4.6 mph SW7.4 kmh SW 9.2 mph14.8 kmh 29.96 in1014.6 mb - 0.00 in0.0 mm 0.00 in0.0 mm
09:37 AM 35.7°F2.1°C 34.7°F1.5°C 96% 4.6 mph SW7.4 kmh SW 6.9 mph11.1 kmh 29.97 in1014.9 mb - 0.00 in0.0 mm 0.00 in0.0 mm
09:31 AM 35.6°F2.0°C 34.6°F1.4°C 96% 3.4 mph SW5.5 kmh SW 5.8 mph9.3 kmh 29.97 in1014.9 mb - 0.00 in0.0 mm 0.00 in0.0 mm
09:26 AM 35.5°F1.9°C 34.5°F1.4°C 96% 3.4 mph SW5.5 kmh SW 3.4 mph5.5 kmh 29.97 in1014.9 mb - 0.00 in0.0 mm 0.00 in0.0 mm
09:20 AM 35.4°F1.9°C 34.4°F1.3°C 96% 3.4 mph WSW5.5 kmh WSW 4.6 mph7.4 kmh 29.96 in1014.6 mb - 0.00 in0.0 mm 0.00 in0.0 mm
09:15 AM 35.4°F1.9°C 34.4°F1.3°C 96% 3.4 mph WSW5.5 kmh WSW 3.4 mph5.5 kmh 29.96 in1014.6 mb - 0.00 in0.0 mm 0.00 in0.0 mm
09:09 AM 35.2°F1.8°C 34.2°F1.2°C 96% 4.6 mph WSW7.4 kmh WSW 4.6 mph7.4 kmh 29.96 in1014.6 mb - 0.00 in0.0 mm 0.00 in0.0 mm
09:03 AM 35.1°F1.7°C 34.1°F1.2°C 96% 4.6 mph WSW7.4 kmh WSW 5.8 mph9.3 kmh 29.96 in1014.6 mb - 0.00 in0.0 mm 0.00 in0.0 mm
08:58 AM 35.1°F1.7°C 34.1°F1.2°C 96% 5.8 mph SW9.3 kmh SW 8.0 mph12.9 kmh 29.96 in1014.6 mb - 0.00 in0.0 mm 0.00 in0.0 mm
08:52 AM 35.1°F1.7°C 34.1°F1.2°C 96% 3.4 mph WSW5.5 kmh WSW 5.8 mph9.3 kmh 29.96 in1014.6 mb - 0.00 in0.0 mm 0.00 in0.0 mm
08:46 AM 34.9°F1.6°C 33.9°F1.1°C 96% 4.6 mph SW7.4 kmh SW 6.9 mph11.1 kmh 29.96 in1014.6 mb - 0.00 in0.0 mm 0.00 in0.0 mm
08:41 AM 34.9°F1.6°C 33.9°F1.1°C 96% 5.8 mph SW9.3 kmh SW 5.8 mph9.3 kmh 29.96 in1014.6 mb - 0.00 in0.0 mm 0.00 in0.0 mm
08:35 AM 34.8°F1.6°C 33.8°F1.0°C 96% 5.8 mph SW9.3 kmh SW 10.3 mph16.6 kmh 29.96 in1014.6 mb - 0.00 in0.0 mm 0.00 in0.0 mm
08:30 AM 34.8°F1.6°C 33.8°F1.0°C 96% 4.6 mph SW7.4 kmh SW 8.0 mph12.9 kmh 29.96 in1014.6 mb - 0.00 in0.0 mm 0.00 in0.0 mm
08:24 AM 34.8°F1.6°C 33.7°F0.9°C 96% 5.8 mph SW9.3 kmh SW 6.9 mph11.1 kmh 29.96 in1014.6 mb - 0.00 in0.0 mm 0.00 in0.0 mm
08:18 AM 34.8°F1.6°C 33.7°F0.9°C 96% 4.6 mph SW7.4 kmh SW 8.0 mph12.9 kmh 29.96 in1014.6 mb - 0.00 in0.0 mm 0.00 in0.0 mm
08:13 AM 34.7°F1.5°C 33.7°F0.9°C 96% 5.8 mph SW9.3 kmh SW 6.9 mph11.1 kmh 29.97 in1014.9 mb - 0.00 in0.0 mm 0.00 in0.0 mm
08:07 AM 34.7°F1.5°C 33.7°F0.9°C 96% 4.6 mph SW7.4 kmh SW 8.0 mph12.9 kmh 29.96 in1014.6 mb - 0.00 in0.0 mm 0.00 in0.0 mm
08:01 AM 34.7°F1.5°C 33.7°F0.9°C 96% 3.4 mph WSW5.5 kmh WSW 5.8 mph9.3 kmh 29.96 in1014.6 mb - 0.00 in0.0 mm 0.00 in0.0 mm
07:56 AM 34.8°F1.6°C 33.8°F1.0°C 96% 5.8 mph SW9.3 kmh SW 9.2 mph14.8 kmh 29.96 in1014.6 mb - 0.00 in0.0 mm 0.00 in0.0 mm
07:50 AM 34.8°F1.6°C 33.7°F0.9°C 96% 3.4 mph WSW5.5 kmh WSW 5.8 mph9.3 kmh 29.96 in1014.6 mb - 0.00 in0.0 mm 0.00 in0.0 mm
07:45 AM 34.7°F1.5°C 33.7°F0.9°C 96% 4.6 mph WSW7.4 kmh WSW 4.6 mph7.4 kmh 29.97 in1014.9 mb - 0.00 in0.0 mm 0.00 in0.0 mm
07:39 AM 34.7°F1.5°C 33.4°F0.8°C 95% 2.3 mph WSW3.7 kmh WSW 5.8 mph9.3 kmh 29.97 in1014.9 mb - 0.00 in0.0 mm 0.00 in0.0 mm
07:33 AM 34.6°F1.4°C 33.4°F0.8°C 95% 2.3 mph SW3.7 kmh SW 3.4 mph5.5 kmh 29.97 in1014.9 mb - 0.00 in0.0 mm 0.00 in0.0 mm
07:28 AM 34.6°F1.4°C 33.3°F0.7°C 95% 3.4 mph WSW5.5 kmh WSW 3.4 mph5.5 kmh 29.97 in1014.9 mb - 0.00 in0.0 mm 0.00 in0.0 mm
07:22 AM 34.6°F1.4°C 33.3°F0.7°C 95% 4.6 mph SW7.4 kmh SW 5.8 mph9.3 kmh 29.97 in1014.9 mb - 0.00 in0.0 mm 0.00 in0.0 mm
07:16 AM 34.6°F1.4°C 33.3°F0.7°C 95% 4.6 mph SW7.4 kmh SW 6.9 mph11.1 kmh 29.97 in1014.9 mb - 0.00 in0.0 mm 0.00 in0.0 mm
07:11 AM 34.6°F1.4°C 33.3°F0.7°C 95% 5.8 mph SW9.3 kmh SW 6.9 mph11.1 kmh 29.97 in1014.9 mb - 0.00 in0.0 mm 0.00 in0.0 mm
07:05 AM 34.5°F1.4°C 33.2°F0.7°C 95% 4.6 mph SW7.4 kmh SW 4.6 mph7.4 kmh 29.97 in1014.9 mb - 0.00 in0.0 mm 0.00 in0.0 mm
07:00 AM 34.5°F1.4°C 33.2°F0.7°C 95% 2.3 mph WSW3.7 kmh WSW 4.6 mph7.4 kmh 29.97 in1014.9 mb - 0.00 in0.0 mm 0.00 in0.0 mm
06:54 AM 34.4°F1.3°C 33.1°F0.6°C 95% 4.6 mph SW7.4 kmh SW 5.8 mph9.3 kmh 29.97 in1014.9 mb - 0.00 in0.0 mm 0.00 in0.0 mm
06:48 AM 34.4°F1.3°C 33.1°F0.6°C 95% 2.3 mph WNW3.7 kmh WNW 2.3 mph3.7 kmh 29.97 in1014.9 mb - 0.00 in0.0 mm 0.00 in0.0 mm
06:43 AM 34.4°F1.3°C 33.1°F0.6°C 95% 3.4 mph SW5.5 kmh SW 4.6 mph7.4 kmh 29.97 in1014.9 mb - 0.00 in0.0 mm 0.00 in0.0 mm
06:37 AM 34.3°F1.3°C 33.0°F0.6°C 95% 2.3 mph WSW3.7 kmh WSW 8.0 mph12.9 kmh 29.97 in1014.9 mb - 0.00 in0.0 mm 0.00 in0.0 mm
06:31 AM 34.3°F1.3°C 33.0°F0.6°C 95% 4.6 mph SW7.4 kmh SW 9.2 mph14.8 kmh 29.98 in1015.2 mb - 0.00 in0.0 mm 0.00 in0.0 mm
06:26 AM 34.3°F1.3°C 33.0°F0.6°C 95% 4.6 mph WSW7.4 kmh WSW 4.6 mph7.4 kmh 29.98 in1015.2 mb - 0.00 in0.0 mm 0.00 in0.0 mm
06:20 AM 34.3°F1.3°C 33.0°F0.6°C 95% 2.3 mph E3.7 kmh E 3.4 mph5.5 kmh 29.97 in1014.9 mb - 0.00 in0.0 mm 0.00 in0.0 mm
06:15 AM 34.3°F1.3°C 33.0°F0.6°C 95% 3.4 mph WSW5.5 kmh WSW 4.6 mph7.4 kmh 29.98 in1015.2 mb - 0.00 in0.0 mm 0.00 in0.0 mm
06:09 AM 34.4°F1.3°C 32.9°F0.5°C 94% 3.4 mph WNW5.5 kmh WNW 4.6 mph7.4 kmh 29.98 in1015.2 mb - 0.00 in0.0 mm 0.00 in0.0 mm
06:03 AM 34.4°F1.3°C 32.8°F0.4°C 94% 1.1 mph W1.8 kmh W 3.4 mph5.5 kmh 29.98 in1015.2 mb - 0.00 in0.0 mm 0.00 in0.0 mm
05:58 AM 34.5°F1.4°C 33.0°F0.6°C 94% 1.1 mph W1.8 kmh W 3.4 mph5.5 kmh 29.98 in1015.2 mb - 0.00 in0.0 mm 0.00 in0.0 mm
05:52 AM 34.5°F1.4°C 33.0°F0.6°C 94% Calm Calm 2.3 mph3.7 kmh 29.98 in1015.2 mb - 0.00 in0.0 mm 0.00 in0.0 mm
05:46 AM 34.7°F1.5°C 33.2°F0.7°C 94% 1.1 mph E1.8 kmh E 3.4 mph5.5 kmh 29.98 in1015.2 mb - 0.00 in0.0 mm 0.00 in0.0 mm
05:41 AM 34.8°F1.6°C 33.2°F0.7°C 94% 1.1 mph ENE1.8 kmh ENE 3.4 mph5.5 kmh 29.98 in1015.2 mb - 0.00 in0.0 mm 0.00 in0.0 mm
05:35 AM 35.0°F1.7°C 33.4°F0.8°C 94% 2.3 mph E3.7 kmh E 3.4 mph5.5 kmh 29.99 in1015.6 mb - 0.00 in0.0 mm 0.00 in0.0 mm
05:30 AM 35.0°F1.7°C 33.4°F0.8°C 94% 3.4 mph WSW5.5 kmh WSW 5.8 mph9.3 kmh 29.99 in1015.6 mb - 0.00 in0.0 mm 0.00 in0.0 mm
05:24 AM 35.2°F1.8°C 33.6°F0.9°C 94% 2.3 mph E3.7 kmh E 3.4 mph5.5 kmh 29.99 in1015.6 mb - 0.00 in0.0 mm 0.00 in0.0 mm
05:18 AM 35.2°F1.8°C 33.6°F0.9°C 94% Calm Calm 2.3 mph3.7 kmh 29.99 in1015.6 mb - 0.00 in0.0 mm 0.00 in0.0 mm
05:13 AM 35.3°F1.8°C 33.7°F0.9°C 94% 1.1 mph W1.8 kmh W 1.1 mph1.8 kmh 29.99 in1015.6 mb - 0.00 in0.0 mm 0.00 in0.0 mm
05:07 AM 35.4°F1.9°C 33.8°F1.0°C 94% Calm Calm 2.3 mph3.7 kmh 29.99 in1015.6 mb - 0.00 in0.0 mm 0.00 in0.0 mm
05:01 AM 35.5°F1.9°C 33.9°F1.1°C 94% 1.1 mph E1.8 kmh E 2.3 mph3.7 kmh 29.99 in1015.6 mb - 0.00 in0.0 mm 0.00 in0.0 mm
04:56 AM 35.6°F2.0°C 34.0°F1.1°C 94% 2.3 mph NE3.7 kmh NE 3.4 mph5.5 kmh 30.00 in1015.9 mb - 0.00 in0.0 mm 0.00 in0.0 mm
04:50 AM 35.6°F2.0°C 34.1°F1.2°C 94% 5.8 mph WSW9.3 kmh WSW 5.8 mph9.3 kmh 30.00 in1015.9 mb - 0.00 in0.0 mm 0.00 in0.0 mm
04:45 AM 35.7°F2.1°C 34.1°F1.2°C 94% 3.4 mph WSW5.5 kmh WSW 3.4 mph5.5 kmh 30.00 in1015.9 mb - 0.00 in0.0 mm 0.00 in0.0 mm
04:39 AM 35.8°F2.1°C 34.2°F1.2°C 94% 4.6 mph WSW7.4 kmh WSW 8.0 mph12.9 kmh 30.00 in1015.9 mb - 0.00 in0.0 mm 0.00 in0.0 mm
04:33 AM 35.9°F2.2°C 34.3°F1.3°C 94% 3.4 mph SW5.5 kmh SW 5.8 mph9.3 kmh 30.00 in1015.9 mb - 0.00 in0.0 mm 0.00 in0.0 mm
04:28 AM 36.0°F2.2°C 34.4°F1.3°C 94% 4.6 mph SW7.4 kmh SW 8.0 mph12.9 kmh 30.00 in1015.9 mb - 0.00 in0.0 mm 0.00 in0.0 mm
04:22 AM 36.0°F2.2°C 34.4°F1.3°C 94% 3.4 mph WSW5.5 kmh WSW 3.4 mph5.5 kmh 30.00 in1015.9 mb - 0.00 in0.0 mm 0.00 in0.0 mm
04:16 AM 36.1°F2.3°C 34.5°F1.4°C 94% 3.4 mph SW5.5 kmh SW 9.2 mph14.8 kmh 30.01 in1016.3 mb - 0.00 in0.0 mm 0.00 in0.0 mm
04:11 AM 36.1°F2.3°C 34.6°F1.4°C 94% 5.8 mph SW9.3 kmh SW 5.8 mph9.3 kmh 30.01 in1016.3 mb - 0.00 in0.0 mm 0.00 in0.0 mm
04:05 AM 36.2°F2.3°C 34.6°F1.4°C 94% 4.6 mph SW7.4 kmh SW 5.8 mph9.3 kmh 30.01 in1016.3 mb - 0.00 in0.0 mm 0.00 in0.0 mm
04:00 AM 36.3°F2.4°C 34.7°F1.5°C 94% 4.6 mph SW7.4 kmh SW 6.9 mph11.1 kmh 30.01 in1016.3 mb - 0.00 in0.0 mm 0.00 in0.0 mm
03:54 AM 36.3°F2.4°C 34.7°F1.5°C 94% 6.9 mph SW11.1 kmh SW 8.0 mph12.9 kmh 30.01 in1016.3 mb - 0.00 in0.0 mm 0.00 in0.0 mm
03:48 AM 36.3°F2.4°C 34.7°F1.5°C 94% 4.6 mph WSW7.4 kmh WSW 9.2 mph14.8 kmh 30.01 in1016.3 mb - 0.00 in0.0 mm 0.00 in0.0 mm
03:43 AM 36.3°F2.4°C 34.7°F1.5°C 94% 2.3 mph WSW3.7 kmh WSW 3.4 mph5.5 kmh 30.01 in1016.3 mb - 0.00 in0.0 mm 0.00 in0.0 mm
03:37 AM 36.3°F2.4°C 34.7°F1.5°C 94% 3.4 mph WSW5.5 kmh WSW 3.4 mph5.5 kmh 30.01 in1016.3 mb - 0.00 in0.0 mm 0.00 in0.0 mm
03:31 AM 36.3°F2.4°C 34.4°F1.3°C 93% 3.4 mph SW5.5 kmh SW 5.8 mph9.3 kmh 30.02 in1016.6 mb - 0.00 in0.0 mm 0.00 in0.0 mm
03:26 AM 36.3°F2.4°C 34.7°F1.5°C 94% 3.4 mph WSW5.5 kmh WSW 3.4 mph5.5 kmh 30.02 in1016.6 mb - 0.00 in0.0 mm 0.00 in0.0 mm
03:20 AM 36.6°F2.6°C 34.8°F1.6°C 93% 1.1 mph WSW1.8 kmh WSW 2.3 mph3.7 kmh 30.02 in1016.6 mb - 0.00 in0.0 mm 0.00 in0.0 mm
03:15 AM 36.7°F2.6°C 35.1°F1.7°C 94% 3.4 mph WSW5.5 kmh WSW 4.6 mph7.4 kmh 30.02 in1016.6 mb - 0.00 in0.0 mm 0.00 in0.0 mm
03:09 AM 36.8°F2.7°C 35.2°F1.8°C 94% 3.4 mph SW5.5 kmh SW 5.8 mph9.3 kmh 30.02 in1016.6 mb - 0.00 in0.0 mm 0.00 in0.0 mm
03:03 AM 36.8°F2.7°C 35.2°F1.8°C 94% 3.4 mph WSW5.5 kmh WSW 4.6 mph7.4 kmh 30.02 in1016.6 mb - 0.00 in0.0 mm 0.00 in0.0 mm
02:58 AM 36.8°F2.7°C 35.3°F1.8°C 94% 4.6 mph SW7.4 kmh SW 8.0 mph12.9 kmh 30.02 in1016.6 mb - 0.00 in0.0 mm 0.00 in0.0 mm
02:52 AM 36.8°F2.7°C 35.3°F1.8°C 94% 5.8 mph SW9.3 kmh SW 6.9 mph11.1 kmh 30.02 in1016.6 mb - 0.00 in0.0 mm 0.00 in0.0 mm
02:46 AM 36.8°F2.7°C 35.3°F1.8°C 94% 4.6 mph WSW7.4 kmh WSW 6.9 mph11.1 kmh 30.03 in1016.9 mb - 0.00 in0.0 mm 0.00 in0.0 mm
02:41 AM 36.8°F2.7°C 35.3°F1.8°C 94% 5.8 mph SW9.3 kmh SW 6.9 mph11.1 kmh 30.03 in1016.9 mb - 0.00 in0.0 mm 0.00 in0.0 mm
02:35 AM 36.8°F2.7°C 35.2°F1.8°C 94% 5.8 mph SW9.3 kmh SW 8.0 mph12.9 kmh 30.03 in1016.9 mb - 0.00 in0.0 mm 0.00 in0.0 mm
02:30 AM 36.8°F2.7°C 35.2°F1.8°C 94% 4.6 mph WSW7.4 kmh WSW 6.9 mph11.1 kmh 30.03 in1016.9 mb - 0.00 in0.0 mm 0.00 in0.0 mm
02:24 AM 36.9°F2.7°C 35.3°F1.8°C 94% 3.4 mph WSW5.5 kmh WSW 4.6 mph7.4 kmh 30.03 in1016.9 mb - 0.00 in0.0 mm 0.00 in0.0 mm
02:18 AM 36.8°F2.7°C 35.2°F1.8°C 94% 4.6 mph SW7.4 kmh SW 5.8 mph9.3 kmh 30.03 in1016.9 mb - 0.00 in0.0 mm 0.00 in0.0 mm
02:13 AM 36.8°F2.7°C 35.2°F1.8°C 94% 4.6 mph WSW7.4 kmh WSW 8.0 mph12.9 kmh 30.03 in1016.9 mb - 0.00 in0.0 mm 0.00 in0.0 mm
02:07 AM 36.8°F2.7°C 35.2°F1.8°C 94% 3.4 mph WSW5.5 kmh WSW 5.8 mph9.3 kmh 30.04 in1017.3 mb - 0.00 in0.0 mm 0.00 in0.0 mm
02:01 AM 36.9°F2.7°C 35.3°F1.8°C 94% 2.3 mph WSW3.7 kmh WSW 3.4 mph5.5 kmh 30.04 in1017.3 mb - 0.00 in0.0 mm 0.00 in0.0 mm
01:56 AM 36.8°F2.7°C 35.2°F1.8°C 94% 2.3 mph W3.7 kmh W 4.6 mph7.4 kmh 30.04 in1017.3 mb - 0.00 in0.0 mm 0.00 in0.0 mm
01:50 AM 36.8°F2.7°C 35.2°F1.8°C 94% 3.4 mph SW5.5 kmh SW 5.8 mph9.3 kmh 30.04 in1017.3 mb - 0.00 in0.0 mm 0.00 in0.0 mm
01:45 AM 36.8°F2.7°C 35.2°F1.8°C 94% 3.4 mph SW5.5 kmh SW 5.8 mph9.3 kmh 30.04 in1017.3 mb - 0.00 in0.0 mm 0.00 in0.0 mm
01:39 AM 36.7°F2.6°C 35.2°F1.8°C 94% 2.3 mph SW3.7 kmh SW 3.4 mph5.5 kmh 30.04 in1017.3 mb - 0.00 in0.0 mm 0.00 in0.0 mm
01:33 AM 36.7°F2.6°C 35.2°F1.8°C 94% 4.6 mph WSW7.4 kmh WSW 5.8 mph9.3 kmh 30.04 in1017.3 mb - 0.00 in0.0 mm 0.00 in0.0 mm
01:28 AM 36.7°F2.6°C 35.2°F1.8°C 94% 4.6 mph WSW7.4 kmh WSW 5.8 mph9.3 kmh 30.04 in1017.3 mb - 0.00 in0.0 mm 0.00 in0.0 mm
01:22 AM 36.8°F2.7°C 35.2°F1.8°C 94% 3.4 mph WSW5.5 kmh WSW 6.9 mph11.1 kmh 30.04 in1017.3 mb - 0.00 in0.0 mm 0.00 in0.0 mm
01:16 AM 36.8°F2.7°C 35.2°F1.8°C 94% 4.6 mph WSW7.4 kmh WSW 8.0 mph12.9 kmh 30.04 in1017.3 mb - 0.00 in0.0 mm 0.00 in0.0 mm
01:11 AM 36.8°F2.7°C 35.2°F1.8°C 94% 3.4 mph WSW5.5 kmh WSW 4.6 mph7.4 kmh 30.04 in1017.3 mb - 0.00 in0.0 mm 0.00 in0.0 mm
01:05 AM 36.8°F2.7°C 35.2°F1.8°C 94% 2.3 mph W3.7 kmh W 3.4 mph5.5 kmh 30.04 in1017.3 mb - 0.00 in0.0 mm 0.00 in0.0 mm
01:00 AM 36.8°F2.7°C 35.2°F1.8°C 94% 3.4 mph WSW5.5 kmh WSW 3.4 mph5.5 kmh 30.05 in1017.6 mb - 0.00 in0.0 mm 0.00 in0.0 mm
12:54 AM 36.8°F2.7°C 35.2°F1.8°C 94% 3.4 mph WSW5.5 kmh WSW 4.6 mph7.4 kmh 30.05 in1017.6 mb - 0.00 in0.0 mm 0.00 in0.0 mm
12:48 AM 36.8°F2.7°C 35.2°F1.8°C 94% 5.8 mph WSW9.3 kmh WSW 6.9 mph11.1 kmh 30.05 in1017.6 mb - 0.00 in0.0 mm 0.00 in0.0 mm
12:43 AM 36.8°F2.7°C 35.2°F1.8°C 94% 4.6 mph SW7.4 kmh SW 5.8 mph9.3 kmh 30.05 in1017.6 mb - 0.00 in0.0 mm 0.00 in0.0 mm
12:37 AM 36.8°F2.7°C 35.2°F1.8°C 94% 4.6 mph WSW7.4 kmh WSW 5.8 mph9.3 kmh 30.05 in1017.6 mb - 0.00 in0.0 mm 0.00 in0.0 mm
12:31 AM 36.8°F2.7°C 35.2°F1.8°C 94% 4.6 mph WSW7.4 kmh WSW 5.8 mph9.3 kmh 30.06 in1017.9 mb - 0.00 in0.0 mm 0.00 in0.0 mm
12:26 AM 36.8°F2.7°C 35.2°F1.8°C 94% 5.8 mph WSW9.3 kmh WSW 10.3 mph16.6 kmh 30.05 in1017.6 mb - 0.00 in0.0 mm 0.00 in0.0 mm
12:20 AM 36.8°F2.7°C 35.2°F1.8°C 94% 5.8 mph SW9.3 kmh SW 6.9 mph11.1 kmh 30.06 in1017.9 mb - 0.00 in0.0 mm 0.00 in0.0 mm
12:15 AM 36.8°F2.7°C 35.2°F1.8°C 94% 4.6 mph WSW7.4 kmh WSW 6.9 mph11.1 kmh 30.06 in1017.9 mb - 0.00 in0.0 mm 0.00 in0.0 mm
12:09 AM 36.8°F2.7°C 35.2°F1.8°C 94% 2.3 mph WSW3.7 kmh WSW 4.6 mph7.4 kmh 30.06 in1017.9 mb - 0.00 in0.0 mm 0.00 in0.0 mm
12:03 AM 36.8°F2.7°C 35.2°F1.8°C 94% 4.6 mph WSW7.4 kmh WSW 8.0 mph12.9 kmh 30.06 in1017.9 mb - 0.00 in0.0 mm 0.00 in0.0 mm